sensor_id;sensor_type;location;lat;lon;timestamp;temperature;humidity
12446;DHT22;6287;50.984;7.022;2023-02-28T00:01:37;-0.20;99.90
12446;DHT22;6287;50.984;7.022;2023-02-28T00:04:04;-0.20;99.90
12446;DHT22;6287;50.984;7.022;2023-02-28T00:06:32;-0.20;99.90
12446;DHT22;6287;50.984;7.022;2023-02-28T00:09:05;-0.20;99.90
12446;DHT22;6287;50.984;7.022;2023-02-28T00:11:31;-0.20;99.90
12446;DHT22;6287;50.984;7.022;2023-02-28T00:13:56;-0.20;99.90
12446;DHT22;6287;50.984;7.022;2023-02-28T00:16:25;-0.20;99.90
12446;DHT22;6287;50.984;7.022;2023-02-28T00:18:50;-0.20;99.90
12446;DHT22;6287;50.984;7.022;2023-02-28T00:21:17;-0.30;99.90
12446;DHT22;6287;50.984;7.022;2023-02-28T00:23:45;-0.30;99.90
12446;DHT22;6287;50.984;7.022;2023-02-28T00:26:12;-0.20;99.90
12446;DHT22;6287;50.984;7.022;2023-02-28T00:28:40;-0.20;99.90
12446;DHT22;6287;50.984;7.022;2023-02-28T00:31:05;-0.20;99.90
12446;DHT22;6287;50.984;7.022;2023-02-28T00:33:38;-0.20;99.90
12446;DHT22;6287;50.984;7.022;2023-02-28T00:36:10;-0.20;99.90
12446;DHT22;6287;50.984;7.022;2023-02-28T00:38:41;-0.20;99.90
12446;DHT22;6287;50.984;7.022;2023-02-28T00:41:09;-0.20;99.90
12446;DHT22;6287;50.984;7.022;2023-02-28T00:43:37;-0.20;99.90
12446;DHT22;6287;50.984;7.022;2023-02-28T00:46:08;-0.20;99.90
12446;DHT22;6287;50.984;7.022;2023-02-28T00:48:36;-0.20;99.90
12446;DHT22;6287;50.984;7.022;2023-02-28T00:51:02;-0.20;99.90
12446;DHT22;6287;50.984;7.022;2023-02-28T00:53:30;-0.20;99.90
12446;DHT22;6287;50.984;7.022;2023-02-28T00:56:00;-0.20;99.90
12446;DHT22;6287;50.984;7.022;2023-02-28T00:58:28;-0.20;99.90
12446;DHT22;6287;50.984;7.022;2023-02-28T01:00:54;-0.20;99.90
12446;DHT22;6287;50.984;7.022;2023-02-28T01:03:23;-0.20;99.90
12446;DHT22;6287;50.984;7.022;2023-02-28T01:05:51;-0.20;99.90
12446;DHT22;6287;50.984;7.022;2023-02-28T01:08:18;-0.20;99.90
12446;DHT22;6287;50.984;7.022;2023-02-28T01:10:44;-0.20;99.90
12446;DHT22;6287;50.984;7.022;2023-02-28T01:13:13;-0.20;99.90
12446;DHT22;6287;50.984;7.022;2023-02-28T01:15:43;-0.20;99.90
12446;DHT22;6287;50.984;7.022;2023-02-28T01:18:10;-0.20;99.90
12446;DHT22;6287;50.984;7.022;2023-02-28T01:20:45;-0.20;99.90
12446;DHT22;6287;50.984;7.022;2023-02-28T01:23:11;-0.20;99.90
12446;DHT22;6287;50.984;7.022;2023-02-28T01:25:40;-0.20;99.90
12446;DHT22;6287;50.984;7.022;2023-02-28T01:28:08;-0.20;99.90
12446;DHT22;6287;50.984;7.022;2023-02-28T01:30:34;-0.20;99.90
12446;DHT22;6287;50.984;7.022;2023-02-28T01:33:00;-0.20;99.90
12446;DHT22;6287;50.984;7.022;2023-02-28T01:35:28;-0.20;99.90
12446;DHT22;6287;50.984;7.022;2023-02-28T01:37:53;-0.20;99.90
12446;DHT22;6287;50.984;7.022;2023-02-28T01:40:22;-0.20;99.90
12446;DHT22;6287;50.984;7.022;2023-02-28T01:42:47;-0.20;99.90
12446;DHT22;6287;50.984;7.022;2023-02-28T01:45:31;-0.30;99.90
12446;DHT22;6287;50.984;7.022;2023-02-28T01:48:05;-0.30;99.90
12446;DHT22;6287;50.984;7.022;2023-02-28T01:50:38;-0.30;99.90
12446;DHT22;6287;50.984;7.022;2023-02-28T01:53:12;-0.30;99.90
12446;DHT22;6287;50.984;7.022;2023-02-28T01:55:40;-0.30;99.90
12446;DHT22;6287;50.984;7.022;2023-02-28T01:58:08;-0.30;99.90
12446;DHT22;6287;50.984;7.022;2023-02-28T02:00:35;-0.30;99.90
12446;DHT22;6287;50.984;7.022;2023-02-28T02:03:07;-0.30;99.90
12446;DHT22;6287;50.984;7.022;2023-02-28T02:05:37;-0.30;99.90
12446;DHT22;6287;50.984;7.022;2023-02-28T02:08:09;-0.30;99.90
12446;DHT22;6287;50.984;7.022;2023-02-28T02:10:45;-0.40;99.90
12446;DHT22;6287;50.984;7.022;2023-02-28T02:34:58;-0.60;99.90
12446;DHT22;6287;50.984;7.022;2023-02-28T02:37:27;-0.70;99.90
12446;DHT22;6287;50.984;7.022;2023-02-28T02:40:21;-0.70;99.90
12446;DHT22;6287;50.984;7.022;2023-02-28T02:45:21;-0.70;99.90
12446;DHT22;6287;50.984;7.022;2023-02-28T02:47:49;-0.80;99.90
12446;DHT22;6287;50.984;7.022;2023-02-28T02:50:24;-0.80;99.90
12446;DHT22;6287;50.984;7.022;2023-02-28T02:52:55;-0.80;99.90
12446;DHT22;6287;50.984;7.022;2023-02-28T02:55:23;-0.80;99.90
12446;DHT22;6287;50.984;7.022;2023-02-28T02:57:53;-0.80;99.90
12446;DHT22;6287;50.984;7.022;2023-02-28T03:00:26;-0.80;99.90
12446;DHT22;6287;50.984;7.022;2023-02-28T03:02:58;-0.90;99.90
12446;DHT22;6287;50.984;7.022;2023-02-28T03:05:30;-0.90;99.90
12446;DHT22;6287;50.984;7.022;2023-02-28T03:08:01;-0.90;99.90
12446;DHT22;6287;50.984;7.022;2023-02-28T03:24:00;-1.00;99.90
12446;DHT22;6287;50.984;7.022;2023-02-28T03:26:29;-1.10;99.90
12446;DHT22;6287;50.984;7.022;2023-02-28T03:31:49;-1.10;99.90
12446;DHT22;6287;50.984;7.022;2023-02-28T03:37:03;-1.10;99.90
12446;DHT22;6287;50.984;7.022;2023-02-28T03:39:34;-1.20;99.90
12446;DHT22;6287;50.984;7.022;2023-02-28T03:42:26;-1.20;99.90
12446;DHT22;6287;50.984;7.022;2023-02-28T03:45:04;-1.20;99.90
12446;DHT22;6287;50.984;7.022;2023-02-28T03:47:59;-1.30;99.90
12446;DHT22;6287;50.984;7.022;2023-02-28T03:50:33;-1.30;99.90
12446;DHT22;6287;50.984;7.022;2023-02-28T03:53:13;-1.30;99.90
12446;DHT22;6287;50.984;7.022;2023-02-28T03:55:52;-1.30;99.90
12446;DHT22;6287;50.984;7.022;2023-02-28T03:58:25;-1.30;99.90
12446;DHT22;6287;50.984;7.022;2023-02-28T04:01:08;-1.20;99.90
12446;DHT22;6287;50.984;7.022;2023-02-28T04:03:36;-1.20;99.90
12446;DHT22;6287;50.984;7.022;2023-02-28T04:06:02;-1.20;99.90
12446;DHT22;6287;50.984;7.022;2023-02-28T04:08:29;-1.20;99.90
12446;DHT22;6287;50.984;7.022;2023-02-28T04:11:06;-1.20;99.90
12446;DHT22;6287;50.984;7.022;2023-02-28T04:13:34;-1.20;99.90
12446;DHT22;6287;50.984;7.022;2023-02-28T04:16:00;-1.20;99.90
12446;DHT22;6287;50.984;7.022;2023-02-28T04:18:27;-1.20;99.90
12446;DHT22;6287;50.984;7.022;2023-02-28T04:20:53;-1.20;99.90
12446;DHT22;6287;50.984;7.022;2023-02-28T04:23:19;-1.20;99.90
12446;DHT22;6287;50.984;7.022;2023-02-28T04:25:44;-1.20;99.90
12446;DHT22;6287;50.984;7.022;2023-02-28T04:28:10;-1.20;99.90
12446;DHT22;6287;50.984;7.022;2023-02-28T04:30:40;-1.10;99.90
12446;DHT22;6287;50.984;7.022;2023-02-28T04:33:08;-1.20;99.90
12446;DHT22;6287;50.984;7.022;2023-02-28T04:35:36;-1.10;99.90
12446;DHT22;6287;50.984;7.022;2023-02-28T04:38:03;-1.10;99.90
12446;DHT22;6287;50.984;7.022;2023-02-28T04:40:35;-1.10;99.90
12446;DHT22;6287;50.984;7.022;2023-02-28T04:43:00;-1.10;99.90
12446;DHT22;6287;50.984;7.022;2023-02-28T04:45:28;-1.00;99.90
12446;DHT22;6287;50.984;7.022;2023-02-28T04:47:57;-1.00;99.90
12446;DHT22;6287;50.984;7.022;2023-02-28T04:50:23;-1.00;99.90
12446;DHT22;6287;50.984;7.022;2023-02-28T04:52:50;-1.00;99.90
12446;DHT22;6287;50.984;7.022;2023-02-28T04:55:16;-1.00;99.90
12446;DHT22;6287;50.984;7.022;2023-02-28T04:57:41;-1.00;99.90
12446;DHT22;6287;50.984;7.022;2023-02-28T05:00:11;-0.90;99.90
12446;DHT22;6287;50.984;7.022;2023-02-28T05:02:41;-0.90;99.90
12446;DHT22;6287;50.984;7.022;2023-02-28T05:05:06;-0.90;99.90
12446;DHT22;6287;50.984;7.022;2023-02-28T05:07:32;-0.90;99.90
12446;DHT22;6287;50.984;7.022;2023-02-28T05:10:02;-0.90;99.90
12446;DHT22;6287;50.984;7.022;2023-02-28T05:12:30;-0.90;99.90
12446;DHT22;6287;50.984;7.022;2023-02-28T05:14:58;-0.90;99.90
12446;DHT22;6287;50.984;7.022;2023-02-28T05:17:24;-0.90;99.90
12446;DHT22;6287;50.984;7.022;2023-02-28T05:19:52;-1.00;99.90
12446;DHT22;6287;50.984;7.022;2023-02-28T05:22:17;-1.00;99.90
12446;DHT22;6287;50.984;7.022;2023-02-28T05:24:43;-1.00;99.90
12446;DHT22;6287;50.984;7.022;2023-02-28T05:27:09;-1.00;99.90
12446;DHT22;6287;50.984;7.022;2023-02-28T05:29:35;-1.00;99.90
12446;DHT22;6287;50.984;7.022;2023-02-28T05:32:08;-1.00;99.90
12446;DHT22;6287;50.984;7.022;2023-02-28T05:34:34;-1.00;99.90
12446;DHT22;6287;50.984;7.022;2023-02-28T05:37:06;-1.00;99.90
12446;DHT22;6287;50.984;7.022;2023-02-28T05:39:37;-1.00;99.90
12446;DHT22;6287;50.984;7.022;2023-02-28T05:42:04;-1.00;99.90
12446;DHT22;6287;50.984;7.022;2023-02-28T05:44:29;-1.00;99.90
12446;DHT22;6287;50.984;7.022;2023-02-28T05:46:55;-1.00;99.90
12446;DHT22;6287;50.984;7.022;2023-02-28T05:49:23;-1.00;99.90
12446;DHT22;6287;50.984;7.022;2023-02-28T05:51:51;-1.00;99.90
12446;DHT22;6287;50.984;7.022;2023-02-28T05:54:16;-1.00;99.90
12446;DHT22;6287;50.984;7.022;2023-02-28T05:56:47;-1.00;99.90
12446;DHT22;6287;50.984;7.022;2023-02-28T05:59:17;-1.00;99.90
12446;DHT22;6287;50.984;7.022;2023-02-28T06:01:46;-1.00;99.90
12446;DHT22;6287;50.984;7.022;2023-02-28T06:04:17;-1.00;99.90
12446;DHT22;6287;50.984;7.022;2023-02-28T06:06:46;-0.90;99.90
12446;DHT22;6287;50.984;7.022;2023-02-28T06:09:12;-0.90;99.90
12446;DHT22;6287;50.984;7.022;2023-02-28T06:11:40;-0.90;99.90
12446;DHT22;6287;50.984;7.022;2023-02-28T06:14:06;-0.90;99.90
12446;DHT22;6287;50.984;7.022;2023-02-28T06:16:35;-0.90;99.90
12446;DHT22;6287;50.984;7.022;2023-02-28T06:19:02;-0.90;99.90
12446;DHT22;6287;50.984;7.022;2023-02-28T06:21:28;-1.00;99.90
12446;DHT22;6287;50.984;7.022;2023-02-28T06:23:56;-1.00;99.90
12446;DHT22;6287;50.984;7.022;2023-02-28T06:26:25;-1.00;99.90
12446;DHT22;6287;50.984;7.022;2023-02-28T06:28:55;-1.00;99.90
12446;DHT22;6287;50.984;7.022;2023-02-28T06:31:23;-1.00;99.90
12446;DHT22;6287;50.984;7.022;2023-02-28T06:33:51;-1.00;99.90
12446;DHT22;6287;50.984;7.022;2023-02-28T06:36:17;-1.00;99.90
12446;DHT22;6287;50.984;7.022;2023-02-28T06:38:43;-1.00;99.90
12446;DHT22;6287;50.984;7.022;2023-02-28T06:41:08;-1.00;99.90
12446;DHT22;6287;50.984;7.022;2023-02-28T06:43:44;-1.00;99.90
12446;DHT22;6287;50.984;7.022;2023-02-28T06:46:13;-1.00;99.90
12446;DHT22;6287;50.984;7.022;2023-02-28T06:48:39;-1.00;99.90
12446;DHT22;6287;50.984;7.022;2023-02-28T06:51:19;-1.00;99.90
12446;DHT22;6287;50.984;7.022;2023-02-28T06:53:50;-1.00;99.90
12446;DHT22;6287;50.984;7.022;2023-02-28T06:56:17;-1.00;99.90
12446;DHT22;6287;50.984;7.022;2023-02-28T06:58:50;-1.00;99.90
12446;DHT22;6287;50.984;7.022;2023-02-28T07:01:16;-0.90;99.90
12446;DHT22;6287;50.984;7.022;2023-02-28T07:03:42;-0.90;99.90
12446;DHT22;6287;50.984;7.022;2023-02-28T07:06:12;-0.90;99.90
12446;DHT22;6287;50.984;7.022;2023-02-28T07:08:38;-0.80;99.90
12446;DHT22;6287;50.984;7.022;2023-02-28T07:11:08;-0.80;99.90
12446;DHT22;6287;50.984;7.022;2023-02-28T07:13:33;-0.70;99.90
12446;DHT22;6287;50.984;7.022;2023-02-28T07:16:04;-0.60;99.90
12446;DHT22;6287;50.984;7.022;2023-02-28T07:18:33;-0.60;99.90
12446;DHT22;6287;50.984;7.022;2023-02-28T07:21:02;-0.50;99.90
12446;DHT22;6287;50.984;7.022;2023-02-28T07:23:28;-0.30;99.90
12446;DHT22;6287;50.984;7.022;2023-02-28T07:25:55;-0.10;99.90
12446;DHT22;6287;50.984;7.022;2023-02-28T07:28:23;-0.10;99.90
12446;DHT22;6287;50.984;7.022;2023-02-28T07:30:52;0.10;99.90
12446;DHT22;6287;50.984;7.022;2023-02-28T07:33:17;0.20;99.90
12446;DHT22;6287;50.984;7.022;2023-02-28T07:35:43;0.40;99.90
12446;DHT22;6287;50.984;7.022;2023-02-28T07:38:09;0.40;99.90
12446;DHT22;6287;50.984;7.022;2023-02-28T07:40:37;0.60;99.90
12446;DHT22;6287;50.984;7.022;2023-02-28T07:43:05;0.70;99.90
12446;DHT22;6287;50.984;7.022;2023-02-28T07:45:31;0.80;99.90
12446;DHT22;6287;50.984;7.022;2023-02-28T07:48:02;0.90;99.90
12446;DHT22;6287;50.984;7.022;2023-02-28T07:50:28;1.10;99.90
12446;DHT22;6287;50.984;7.022;2023-02-28T07:52:58;1.20;99.90
12446;DHT22;6287;50.984;7.022;2023-02-28T07:55:24;1.30;99.90
12446;DHT22;6287;50.984;7.022;2023-02-28T07:57:54;1.50;99.70
12446;DHT22;6287;50.984;7.022;2023-02-28T08:00:22;1.60;99.30
12446;DHT22;6287;50.984;7.022;2023-02-28T08:02:50;1.70;99.00
12446;DHT22;6287;50.984;7.022;2023-02-28T08:05:18;1.90;98.60
12446;DHT22;6287;50.984;7.022;2023-02-28T08:07:43;2.00;98.10
12446;DHT22;6287;50.984;7.022;2023-02-28T08:10:11;2.10;98.20
12446;DHT22;6287;50.984;7.022;2023-02-28T08:12:41;2.30;97.40
12446;DHT22;6287;50.984;7.022;2023-02-28T08:15:10;2.40;97.60
12446;DHT22;6287;50.984;7.022;2023-02-28T08:17:38;2.50;97.40
12446;DHT22;6287;50.984;7.022;2023-02-28T08:20:07;2.60;97.20
12446;DHT22;6287;50.984;7.022;2023-02-28T08:22:32;2.70;97.40
12446;DHT22;6287;50.984;7.022;2023-02-28T08:25:01;2.80;96.40
12446;DHT22;6287;50.984;7.022;2023-02-28T08:27:32;3.00;96.30
12446;DHT22;6287;50.984;7.022;2023-02-28T08:30:00;3.10;95.80
12446;DHT22;6287;50.984;7.022;2023-02-28T08:32:26;3.20;95.60
12446;DHT22;6287;50.984;7.022;2023-02-28T08:34:54;3.30;95.50
12446;DHT22;6287;50.984;7.022;2023-02-28T08:37:19;3.40;94.70
12446;DHT22;6287;50.984;7.022;2023-02-28T08:39:45;3.50;94.70
12446;DHT22;6287;50.984;7.022;2023-02-28T08:42:11;3.70;93.50
12446;DHT22;6287;50.984;7.022;2023-02-28T08:44:36;3.70;92.90
12446;DHT22;6287;50.984;7.022;2023-02-28T08:47:05;3.70;93.00
12446;DHT22;6287;50.984;7.022;2023-02-28T08:49:33;3.80;92.20
12446;DHT22;6287;50.984;7.022;2023-02-28T08:52:01;3.90;91.10
12446;DHT22;6287;50.984;7.022;2023-02-28T08:54:30;3.90;91.60
12446;DHT22;6287;50.984;7.022;2023-02-28T08:56:57;3.80;90.60
12446;DHT22;6287;50.984;7.022;2023-02-28T08:59:28;4.00;90.70
12446;DHT22;6287;50.984;7.022;2023-02-28T09:01:55;4.10;90.10
12446;DHT22;6287;50.984;7.022;2023-02-28T09:04:21;4.20;90.60
12446;DHT22;6287;50.984;7.022;2023-02-28T09:06:49;4.30;89.50
12446;DHT22;6287;50.984;7.022;2023-02-28T09:09:18;4.40;90.00
12446;DHT22;6287;50.984;7.022;2023-02-28T09:11:45;4.60;88.70
12446;DHT22;6287;50.984;7.022;2023-02-28T09:14:12;4.60;87.20
12446;DHT22;6287;50.984;7.022;2023-02-28T09:16:40;4.80;87.30
12446;DHT22;6287;50.984;7.022;2023-02-28T09:19:06;4.80;86.50
12446;DHT22;6287;50.984;7.022;2023-02-28T09:21:31;4.80;84.30
12446;DHT22;6287;50.984;7.022;2023-02-28T09:23:59;4.90;86.70
12446;DHT22;6287;50.984;7.022;2023-02-28T09:26:27;5.00;85.50
12446;DHT22;6287;50.984;7.022;2023-02-28T09:28:55;5.10;87.20
12446;DHT22;6287;50.984;7.022;2023-02-28T09:31:26;5.20;83.80
12446;DHT22;6287;50.984;7.022;2023-02-28T09:33:55;5.20;85.50
12446;DHT22;6287;50.984;7.022;2023-02-28T09:36:25;5.30;84.90
12446;DHT22;6287;50.984;7.022;2023-02-28T09:38:51;5.30;83.50
12446;DHT22;6287;50.984;7.022;2023-02-28T09:41:21;5.40;83.40
12446;DHT22;6287;50.984;7.022;2023-02-28T09:43:52;5.50;82.90
12446;DHT22;6287;50.984;7.022;2023-02-28T09:46:43;5.50;81.70
12446;DHT22;6287;50.984;7.022;2023-02-28T09:49:19;5.50;81.10
12446;DHT22;6287;50.984;7.022;2023-02-28T09:51:56;5.70;81.10
12446;DHT22;6287;50.984;7.022;2023-02-28T09:54:30;5.70;81.10
12446;DHT22;6287;50.984;7.022;2023-02-28T10:02:37;5.90;78.90
12446;DHT22;6287;50.984;7.022;2023-02-28T10:05:15;5.90;77.90
12446;DHT22;6287;50.984;7.022;2023-02-28T10:08:37;6.00;79.10
12446;DHT22;6287;50.984;7.022;2023-02-28T10:10:47;6.10;79.90
12446;DHT22;6287;50.984;7.022;2023-02-28T10:16:16;6.30;78.10
12446;DHT22;6287;50.984;7.022;2023-02-28T10:18:51;6.50;78.70
12446;DHT22;6287;50.984;7.022;2023-02-28T10:21:40;6.70;79.50
12446;DHT22;6287;50.984;7.022;2023-02-28T10:24:23;6.90;79.00
12446;DHT22;6287;50.984;7.022;2023-02-28T10:26:59;6.80;76.80
12446;DHT22;6287;50.984;7.022;2023-02-28T10:29:26;6.90;77.50
12446;DHT22;6287;50.984;7.022;2023-02-28T10:31:52;7.10;77.70
12446;DHT22;6287;50.984;7.022;2023-02-28T10:34:18;7.20;76.20
12446;DHT22;6287;50.984;7.022;2023-02-28T10:36:44;7.20;75.60
12446;DHT22;6287;50.984;7.022;2023-02-28T10:42:03;7.40;75.70
12446;DHT22;6287;50.984;7.022;2023-02-28T10:44:29;7.30;74.70
12446;DHT22;6287;50.984;7.022;2023-02-28T10:46:58;7.20;75.80
12446;DHT22;6287;50.984;7.022;2023-02-28T10:49:28;7.00;75.50
12446;DHT22;6287;50.984;7.022;2023-02-28T10:52:03;7.10;76.60
12446;DHT22;6287;50.984;7.022;2023-02-28T10:54:34;7.30;75.10
12446;DHT22;6287;50.984;7.022;2023-02-28T10:57:20;7.50;75.40
12446;DHT22;6287;50.984;7.022;2023-02-28T10:59:51;7.80;76.30
12446;DHT22;6287;50.984;7.022;2023-02-28T11:02:36;8.10;76.30
12446;DHT22;6287;50.984;7.022;2023-02-28T11:05:30;8.20;75.40
12446;DHT22;6287;50.984;7.022;2023-02-28T11:08:06;8.30;75.50
12446;DHT22;6287;50.984;7.022;2023-02-28T11:10:38;8.60;76.00
12446;DHT22;6287;50.984;7.022;2023-02-28T11:13:12;8.90;74.80
12446;DHT22;6287;50.984;7.022;2023-02-28T11:15:41;8.90;72.50
12446;DHT22;6287;50.984;7.022;2023-02-28T11:18:21;8.60;72.60
12446;DHT22;6287;50.984;7.022;2023-02-28T11:20:53;8.40;72.20
12446;DHT22;6287;50.984;7.022;2023-02-28T11:23:28;8.20;71.80
12446;DHT22;6287;50.984;7.022;2023-02-28T11:26:00;8.10;74.40
12446;DHT22;6287;50.984;7.022;2023-02-28T11:28:35;8.10;72.40
12446;DHT22;6287;50.984;7.022;2023-02-28T11:33:48;8.30;74.80
12446;DHT22;6287;50.984;7.022;2023-02-28T11:38:56;8.80;73.60
12446;DHT22;6287;50.984;7.022;2023-02-28T11:44:24;9.10;73.30
12446;DHT22;6287;50.984;7.022;2023-02-28T11:46:56;9.30;72.60
12446;DHT22;6287;50.984;7.022;2023-02-28T11:51:59;9.20;71.00
12446;DHT22;6287;50.984;7.022;2023-02-28T11:57:21;9.10;73.60
12446;DHT22;6287;50.984;7.022;2023-02-28T12:05:46;9.40;70.20
12446;DHT22;6287;50.984;7.022;2023-02-28T12:14:07;8.90;65.40
12446;DHT22;6287;50.984;7.022;2023-02-28T12:22:31;9.10;70.60
12446;DHT22;6287;50.984;7.022;2023-02-28T12:27:41;9.80;68.40
12446;DHT22;6287;50.984;7.022;2023-02-28T12:30:26;10.00;66.60
12446;DHT22;6287;50.984;7.022;2023-02-28T12:33:02;10.30;67.60
12446;DHT22;6287;50.984;7.022;2023-02-28T12:35:48;10.40;65.40
12446;DHT22;6287;50.984;7.022;2023-02-28T12:41:16;10.30;63.30
12446;DHT22;6287;50.984;7.022;2023-02-28T12:43:58;10.40;63.70
12446;DHT22;6287;50.984;7.022;2023-02-28T12:46:32;10.50;64.10
12446;DHT22;6287;50.984;7.022;2023-02-28T12:49:06;10.60;62.90
12446;DHT22;6287;50.984;7.022;2023-02-28T12:51:35;10.60;62.60
12446;DHT22;6287;50.984;7.022;2023-02-28T12:57:17;10.80;62.90
12446;DHT22;6287;50.984;7.022;2023-02-28T13:00:03;10.90;61.40
12446;DHT22;6287;50.984;7.022;2023-02-28T13:11:39;11.10;60.20
12446;DHT22;6287;50.984;7.022;2023-02-28T13:14:22;10.90;60.50
12446;DHT22;6287;50.984;7.022;2023-02-28T13:17:10;11.00;60.40
12446;DHT22;6287;50.984;7.022;2023-02-28T13:19:43;11.10;59.80
12446;DHT22;6287;50.984;7.022;2023-02-28T13:28:13;11.80;59.80
12446;DHT22;6287;50.984;7.022;2023-02-28T13:31:05;12.10;57.40
12446;DHT22;6287;50.984;7.022;2023-02-28T13:33:37;12.30;56.70
12446;DHT22;6287;50.984;7.022;2023-02-28T13:36:32;12.50;56.90
12446;DHT22;6287;50.984;7.022;2023-02-28T13:39:03;12.60;55.50
12446;DHT22;6287;50.984;7.022;2023-02-28T13:47:21;13.00;56.10
12446;DHT22;6287;50.984;7.022;2023-02-28T13:49:27;13.30;54.10
12446;DHT22;6287;50.984;7.022;2023-02-28T14:09:30;12.70;52.00
12446;DHT22;6287;50.984;7.022;2023-02-28T14:11:40;12.00;52.10
12446;DHT22;6287;50.984;7.022;2023-02-28T14:17:04;10.70;54.10
12446;DHT22;6287;50.984;7.022;2023-02-28T14:19:31;10.40;53.50
12446;DHT22;6287;50.984;7.022;2023-02-28T14:22:14;10.20;54.40
12446;DHT22;6287;50.984;7.022;2023-02-28T14:28:17;9.90;56.00
12446;DHT22;6287;50.984;7.022;2023-02-28T14:36:25;9.70;57.60
12446;DHT22;6287;50.984;7.022;2023-02-28T14:39:04;10.00;55.90
12446;DHT22;6287;50.984;7.022;2023-02-28T14:41:40;10.40;53.90
12446;DHT22;6287;50.984;7.022;2023-02-28T14:44:21;10.70;54.60
12446;DHT22;6287;50.984;7.022;2023-02-28T14:46:50;11.00;52.70
12446;DHT22;6287;50.984;7.022;2023-02-28T14:52:07;11.50;52.40
12446;DHT22;6287;50.984;7.022;2023-02-28T14:54:37;11.80;53.40
12446;DHT22;6287;50.984;7.022;2023-02-28T14:57:19;12.00;51.30
12446;DHT22;6287;50.984;7.022;2023-02-28T15:00:05;11.90;51.10
12446;DHT22;6287;50.984;7.022;2023-02-28T15:02:37;11.60;51.20
12446;DHT22;6287;50.984;7.022;2023-02-28T15:07:38;11.10;52.50
12446;DHT22;6287;50.984;7.022;2023-02-28T15:12:47;10.70;51.70
12446;DHT22;6287;50.984;7.022;2023-02-28T15:15:17;10.50;52.60
12446;DHT22;6287;50.984;7.022;2023-02-28T15:17:49;10.10;53.60
12446;DHT22;6287;50.984;7.022;2023-02-28T15:20:18;9.80;55.50
12446;DHT22;6287;50.984;7.022;2023-02-28T15:22:45;9.40;55.70
12446;DHT22;6287;50.984;7.022;2023-02-28T15:25:15;8.90;56.10
12446;DHT22;6287;50.984;7.022;2023-02-28T15:27:52;8.50;56.10
12446;DHT22;6287;50.984;7.022;2023-02-28T15:30:21;8.40;57.60
12446;DHT22;6287;50.984;7.022;2023-02-28T15:35:32;8.70;58.10
12446;DHT22;6287;50.984;7.022;2023-02-28T15:38:13;9.80;55.80
12446;DHT22;6287;50.984;7.022;2023-02-28T15:40:46;9.80;56.30
12446;DHT22;6287;50.984;7.022;2023-02-28T15:43:39;10.00;56.50
12446;DHT22;6287;50.984;7.022;2023-02-28T15:46:10;9.60;58.10
12446;DHT22;6287;50.984;7.022;2023-02-28T15:48:51;9.30;58.70
12446;DHT22;6287;50.984;7.022;2023-02-28T15:51:35;8.90;57.50
12446;DHT22;6287;50.984;7.022;2023-02-28T15:54:10;8.50;58.40
12446;DHT22;6287;50.984;7.022;2023-02-28T15:56:42;8.20;59.30
12446;DHT22;6287;50.984;7.022;2023-02-28T15:59:15;8.10;60.10
12446;DHT22;6287;50.984;7.022;2023-02-28T16:01:41;8.10;60.60
12446;DHT22;6287;50.984;7.022;2023-02-28T16:04:17;8.00;60.10
12446;DHT22;6287;50.984;7.022;2023-02-28T16:09:27;8.00;60.60
12446;DHT22;6287;50.984;7.022;2023-02-28T16:12:00;7.90;60.30
12446;DHT22;6287;50.984;7.022;2023-02-28T16:14:31;7.80;60.20
12446;DHT22;6287;50.984;7.022;2023-02-28T16:17:05;7.60;60.60
12446;DHT22;6287;50.984;7.022;2023-02-28T16:19:32;7.40;61.20
12446;DHT22;6287;50.984;7.022;2023-02-28T16:21:57;7.20;61.20
12446;DHT22;6287;50.984;7.022;2023-02-28T16:24:23;7.10;61.30
12446;DHT22;6287;50.984;7.022;2023-02-28T16:26:51;7.00;62.40
12446;DHT22;6287;50.984;7.022;2023-02-28T16:29:37;6.90;62.20
12446;DHT22;6287;50.984;7.022;2023-02-28T16:32:10;6.80;63.00
12446;DHT22;6287;50.984;7.022;2023-02-28T16:34:39;6.80;63.00
12446;DHT22;6287;50.984;7.022;2023-02-28T16:37:27;6.70;63.60
12446;DHT22;6287;50.984;7.022;2023-02-28T16:39:52;6.70;63.80
12446;DHT22;6287;50.984;7.022;2023-02-28T16:42:25;6.70;64.20
12446;DHT22;6287;50.984;7.022;2023-02-28T16:44:53;6.60;63.70
12446;DHT22;6287;50.984;7.022;2023-02-28T16:47:20;6.50;64.50
12446;DHT22;6287;50.984;7.022;2023-02-28T16:49:48;6.40;67.60
12446;DHT22;6287;50.984;7.022;2023-02-28T16:52:14;6.30;68.40
12446;DHT22;6287;50.984;7.022;2023-02-28T16:54:41;6.20;69.10
12446;DHT22;6287;50.984;7.022;2023-02-28T16:57:20;6.10;69.50
12446;DHT22;6287;50.984;7.022;2023-02-28T16:59:48;5.60;69.70
12446;DHT22;6287;50.984;7.022;2023-02-28T17:02:15;6.10;70.70
12446;DHT22;6287;50.984;7.022;2023-02-28T17:04:46;6.00;71.90
12446;DHT22;6287;50.984;7.022;2023-02-28T17:07:14;5.80;71.70
12446;DHT22;6287;50.984;7.022;2023-02-28T17:09:43;5.80;71.50
12446;DHT22;6287;50.984;7.022;2023-02-28T17:12:11;5.70;72.90
12446;DHT22;6287;50.984;7.022;2023-02-28T17:14:37;5.60;73.50
12446;DHT22;6287;50.984;7.022;2023-02-28T17:17:13;5.50;74.40
12446;DHT22;6287;50.984;7.022;2023-02-28T17:19:41;5.50;75.50
12446;DHT22;6287;50.984;7.022;2023-02-28T17:22:12;5.40;73.50
12446;DHT22;6287;50.984;7.022;2023-02-28T17:24:42;5.30;74.70
12446;DHT22;6287;50.984;7.022;2023-02-28T17:27:16;5.30;75.80
12446;DHT22;6287;50.984;7.022;2023-02-28T17:29:42;5.20;73.50
12446;DHT22;6287;50.984;7.022;2023-02-28T17:32:07;5.10;73.70
12446;DHT22;6287;50.984;7.022;2023-02-28T17:34:33;5.10;74.70
12446;DHT22;6287;50.984;7.022;2023-02-28T17:36:58;5.00;74.60
12446;DHT22;6287;50.984;7.022;2023-02-28T17:39:24;5.00;75.20
12446;DHT22;6287;50.984;7.022;2023-02-28T17:41:55;4.90;76.60
12446;DHT22;6287;50.984;7.022;2023-02-28T17:44:22;4.80;77.60
12446;DHT22;6287;50.984;7.022;2023-02-28T17:46:52;4.80;78.70
12446;DHT22;6287;50.984;7.022;2023-02-28T17:49:21;5.30;79.90
12446;DHT22;6287;50.984;7.022;2023-02-28T17:51:47;4.60;79.60
12446;DHT22;6287;50.984;7.022;2023-02-28T17:54:15;4.50;79.40
12446;DHT22;6287;50.984;7.022;2023-02-28T17:56:44;4.40;80.90
12446;DHT22;6287;50.984;7.022;2023-02-28T17:59:10;4.30;81.70
12446;DHT22;6287;50.984;7.022;2023-02-28T18:01:41;4.30;83.00
12446;DHT22;6287;50.984;7.022;2023-02-28T18:04:06;4.10;83.30
12446;DHT22;6287;50.984;7.022;2023-02-28T18:06:37;4.10;84.40
12446;DHT22;6287;50.984;7.022;2023-02-28T18:09:17;4.00;85.80
12446;DHT22;6287;50.984;7.022;2023-02-28T18:11:43;4.00;86.80
12446;DHT22;6287;50.984;7.022;2023-02-28T18:14:14;3.90;87.50
12446;DHT22;6287;50.984;7.022;2023-02-28T18:16:41;3.80;88.80
12446;DHT22;6287;50.984;7.022;2023-02-28T18:19:12;3.80;89.30
12446;DHT22;6287;50.984;7.022;2023-02-28T18:21:50;3.80;90.00
12446;DHT22;6287;50.984;7.022;2023-02-28T18:24:17;3.80;90.40
12446;DHT22;6287;50.984;7.022;2023-02-28T18:26:46;3.80;90.80
12446;DHT22;6287;50.984;7.022;2023-02-28T18:29:19;3.70;90.80
12446;DHT22;6287;50.984;7.022;2023-02-28T18:31:44;3.70;91.30
12446;DHT22;6287;50.984;7.022;2023-02-28T18:34:13;3.70;91.50
12446;DHT22;6287;50.984;7.022;2023-02-28T18:36:39;3.60;91.80
12446;DHT22;6287;50.984;7.022;2023-02-28T18:39:09;3.50;92.00
12446;DHT22;6287;50.984;7.022;2023-02-28T18:44:04;3.50;92.30
12446;DHT22;6287;50.984;7.022;2023-02-28T18:46:31;3.40;92.70
12446;DHT22;6287;50.984;7.022;2023-02-28T18:48:56;3.40;93.10
12446;DHT22;6287;50.984;7.022;2023-02-28T18:51:25;3.30;93.30
12446;DHT22;6287;50.984;7.022;2023-02-28T18:53:52;3.30;93.50